createdAt,value
2016-09-27T00:01:32.942Z,1017.55
2016-09-27T00:06:30.999Z,1017.46
2016-09-27T00:11:27.210Z,1017.40
2016-09-27T00:16:24.300Z,1017.39
2016-09-27T00:21:20.696Z,1017.39
2016-09-27T00:26:17.169Z,1017.38
2016-09-27T00:31:13.635Z,1017.47
2016-09-27T00:36:10.404Z,1017.59
2016-09-27T00:41:07.020Z,1017.61
2016-09-27T00:46:03.292Z,1017.54
2016-09-27T00:50:59.842Z,1017.62
2016-09-27T00:55:56.175Z,1017.65
2016-09-27T01:00:52.632Z,1017.71
2016-09-27T01:05:49.360Z,1017.78
2016-09-27T01:10:45.753Z,1017.82
2016-09-27T01:15:42.336Z,1017.77
2016-09-27T01:20:38.907Z,1017.71
2016-09-27T01:25:35.575Z,1017.76
2016-09-27T01:30:32.196Z,1017.81
2016-09-27T01:35:28.812Z,1017.84
2016-09-27T01:40:25.355Z,1017.77
2016-09-27T01:45:22.305Z,1017.85
2016-09-27T01:50:18.876Z,1017.87
2016-09-27T01:55:15.456Z,1017.74
2016-09-27T02:00:11.699Z,1017.81
2016-09-27T02:05:07.943Z,1017.87
2016-09-27T02:10:04.353Z,1017.95
2016-09-27T02:15:00.907Z,1017.84
2016-09-27T02:19:57.682Z,1017.86
2016-09-27T02:24:54.224Z,1017.92
2016-09-27T02:29:50.739Z,1017.85
2016-09-27T02:34:48.442Z,1017.93
2016-09-27T02:39:44.606Z,1017.83
2016-09-27T02:44:41.039Z,1017.86
2016-09-27T02:49:37.437Z,1017.96
2016-09-27T02:54:33.915Z,1018.08
2016-09-27T02:59:30.335Z,1018.07
2016-09-27T03:04:26.786Z,1018.07
2016-09-27T03:09:23.286Z,1018.18
2016-09-27T03:14:19.927Z,1018.05
2016-09-27T03:19:16.857Z,1018.17
2016-09-27T03:24:14.169Z,1018.22
2016-09-27T03:29:10.593Z,1018.13
2016-09-27T03:34:07.182Z,1018.16
2016-09-27T03:39:06.280Z,1018.11
2016-09-27T03:44:02.667Z,1018.16
2016-09-27T03:48:59.254Z,1018.03
2016-09-27T03:53:55.791Z,1018.18
2016-09-27T03:58:52.293Z,1018.18
2016-09-27T04:03:51.175Z,1018.22
2016-09-27T04:08:46.994Z,1018.34
2016-09-27T04:13:43.747Z,1018.32
2016-09-27T04:18:40.848Z,1018.33
2016-09-27T04:23:37.497Z,1018.43
2016-09-27T04:28:33.631Z,1018.51
2016-09-27T04:33:30.435Z,1018.49
2016-09-27T04:38:26.759Z,1018.57
2016-09-27T04:43:24.138Z,1018.59
2016-09-27T04:48:20.040Z,1018.63
2016-09-27T04:53:16.739Z,1018.68
2016-09-27T04:58:13.113Z,1018.71
2016-09-27T05:03:09.392Z,1018.58
2016-09-27T05:08:06.832Z,1018.57
2016-09-27T05:13:03.164Z,1018.60
2016-09-27T05:17:59.689Z,1018.57
2016-09-27T05:22:55.845Z,1018.58
2016-09-27T05:27:52.762Z,1018.58
2016-09-27T05:32:49.367Z,1018.64
2016-09-27T05:37:45.974Z,1018.73
2016-09-27T05:42:42.596Z,1018.83
2016-09-27T05:47:39.450Z,1018.85
2016-09-27T05:52:36.109Z,1018.89
2016-09-27T05:57:32.421Z,1019.03
2016-09-27T06:02:29.398Z,1019.08
2016-09-27T06:07:25.892Z,1019.15
2016-09-27T06:12:22.742Z,1019.12
2016-09-27T06:17:19.342Z,1019.14
2016-09-27T06:22:15.634Z,1019.34
2016-09-27T06:27:12.315Z,1019.27
2016-09-27T06:32:09.726Z,1019.31
2016-09-27T06:37:06.199Z,1019.25
2016-09-27T06:42:02.819Z,1019.26
2016-09-27T06:46:59.727Z,1019.20
2016-09-27T06:51:56.251Z,1019.16
2016-09-27T06:56:53.335Z,1019.07
2016-09-27T07:01:50.166Z,1019.06
2016-09-27T07:06:47.010Z,1019.18
2016-09-27T07:11:43.985Z,1019.34
2016-09-27T07:16:40.910Z,1019.27
2016-09-27T07:21:37.395Z,1019.22
2016-09-27T07:26:35.176Z,1019.27
2016-09-27T07:31:31.651Z,1019.25
2016-09-27T07:36:28.080Z,1019.35
2016-09-27T07:41:25.285Z,1019.38
2016-09-27T07:46:21.540Z,1019.44
2016-09-27T07:51:18.285Z,1019.38
2016-09-27T07:56:15.309Z,1019.41
2016-09-27T08:01:11.635Z,1019.38
2016-09-27T08:06:09.042Z,1019.37
2016-09-27T08:11:06.266Z,1019.37
2016-09-27T08:16:04.924Z,1019.35
2016-09-27T08:21:01.345Z,1019.37
2016-09-27T08:25:57.993Z,1019.39
2016-09-27T08:30:55.023Z,1019.42
2016-09-27T08:35:51.824Z,1019.36
2016-09-27T08:40:48.253Z,1019.40
2016-09-27T08:45:47.310Z,1019.38
2016-09-27T08:50:43.470Z,1019.33
2016-09-27T08:55:40.053Z,1019.46
2016-09-27T09:00:36.705Z,1019.45
2016-09-27T09:05:33.463Z,1019.46
2016-09-27T09:10:30.033Z,1019.48
2016-09-27T09:15:26.715Z,1019.53
2016-09-27T09:20:23.535Z,1019.60
2016-09-27T09:25:20.293Z,1019.54
2016-09-27T09:30:17.045Z,1019.58
2016-09-27T09:35:13.534Z,1019.72
2016-09-27T09:40:10.427Z,1019.71
2016-09-27T09:45:06.984Z,1019.70
2016-09-27T09:50:03.332Z,1019.84
2016-09-27T09:55:00.002Z,1019.76
2016-09-27T09:59:56.960Z,1019.84
2016-09-27T10:04:53.699Z,1019.90
2016-09-27T10:09:50.938Z,1019.96
2016-09-27T10:14:47.545Z,1020.02
2016-09-27T10:19:44.705Z,1019.98
2016-09-27T10:24:42.528Z,1019.87
2016-09-27T10:29:39.088Z,1019.72
2016-09-27T10:34:35.902Z,1019.76
2016-09-27T10:39:33.486Z,1019.78
2016-09-27T10:44:29.870Z,1019.79
2016-09-27T10:49:26.866Z,1019.84
2016-09-27T10:54:23.724Z,1019.78
2016-09-27T10:59:21.047Z,1019.68
2016-09-27T11:04:21.104Z,1019.78
2016-09-27T11:09:21.905Z,1019.72
2016-09-27T11:14:21.767Z,1019.66
2016-09-27T11:19:20.153Z,1019.70
2016-09-27T11:24:18.921Z,1019.77
2016-09-27T11:29:18.691Z,1019.73
2016-09-27T11:34:16.675Z,1019.61
2016-09-27T11:39:13.069Z,1019.56
2016-09-27T11:44:10.893Z,1019.51
2016-09-27T11:49:08.386Z,1019.37
2016-09-27T11:54:05.661Z,1019.40
2016-09-27T11:59:01.010Z,1019.44
2016-09-27T12:03:59.363Z,1019.41
2016-09-27T12:08:56.024Z,1019.42
2016-09-27T12:13:50.119Z,1019.36
2016-09-27T12:18:49.514Z,1019.20
2016-09-27T12:23:42.647Z,1019.24
2016-09-27T12:28:38.136Z,1019.37
2016-09-27T12:33:34.490Z,1019.13
2016-09-27T12:38:29.355Z,1019.26
2016-09-27T12:43:24.661Z,1019.16
2016-09-27T12:48:20.702Z,1019.25
2016-09-27T12:53:17.058Z,1019.25
2016-09-27T12:58:14.458Z,1019.16
2016-09-27T13:03:12.633Z,1019.10
2016-09-27T13:08:08.204Z,1019.21
2016-09-27T13:13:04.132Z,1019.04
2016-09-27T13:18:01.009Z,1019.00
2016-09-27T13:22:56.875Z,1018.96
2016-09-27T13:27:53.635Z,1019.05
2016-09-27T13:32:50.441Z,1018.99
2016-09-27T13:37:46.982Z,1018.94
2016-09-27T13:42:44.317Z,1019.08
2016-09-27T13:47:41.487Z,1018.94
2016-09-27T13:52:39.439Z,1018.86
2016-09-27T13:57:37.178Z,1018.99
2016-09-27T14:07:40.401Z,1018.85
2016-09-27T14:12:36.086Z,1018.80
2016-09-27T14:17:32.059Z,1018.81
2016-09-27T14:22:28.356Z,1018.68
2016-09-27T14:27:24.698Z,1018.69
2016-09-27T14:32:21.215Z,1018.67
2016-09-27T14:37:17.908Z,1018.61
2016-09-27T14:42:15.693Z,1018.70
2016-09-27T14:47:11.976Z,1018.59
2016-09-27T14:52:09.586Z,1018.56
2016-09-27T14:57:06.208Z,1018.54
2016-09-27T15:02:04.341Z,1018.48
2016-09-27T15:07:00.588Z,1018.45
2016-09-27T15:11:58.184Z,1018.49
2016-09-27T15:16:54.408Z,1018.48
2016-09-27T15:21:51.180Z,1018.51
2016-09-27T15:26:48.085Z,1018.65
2016-09-27T15:31:44.661Z,1018.66
2016-09-27T15:36:42.321Z,1018.57
2016-09-27T15:41:38.576Z,1018.52
2016-09-27T15:46:35.184Z,1018.55
2016-09-27T15:51:31.968Z,1018.63
2016-09-27T15:56:28.358Z,1018.74
2016-09-27T16:01:25.203Z,1018.52
2016-09-27T16:06:21.901Z,1018.52
2016-09-27T16:11:18.776Z,1018.44
2016-09-27T16:16:14.925Z,1018.69
2016-09-27T16:21:11.725Z,1018.75
2016-09-27T16:26:08.241Z,1018.65
2016-09-27T16:31:04.929Z,1018.77
2016-09-27T16:36:01.364Z,1018.87
2016-09-27T16:40:57.864Z,1019.10
2016-09-27T16:45:54.029Z,1018.96
2016-09-27T16:50:50.913Z,1018.93
2016-09-27T16:55:47.367Z,1018.88
2016-09-27T17:00:44.169Z,1018.89
2016-09-27T17:05:40.446Z,1018.82
2016-09-27T17:10:36.888Z,1018.87
2016-09-27T17:15:33.295Z,1018.94
2016-09-27T17:20:30.260Z,1019.02
2016-09-27T17:25:26.970Z,1018.91
2016-09-27T17:30:23.520Z,1018.84
2016-09-27T17:35:20.086Z,1018.79
2016-09-27T17:40:16.648Z,1018.80
2016-09-27T17:45:13.265Z,1018.75
2016-09-27T17:50:09.760Z,1018.77
2016-09-27T17:55:07.463Z,1018.75
2016-09-27T18:00:03.810Z,1018.75
2016-09-27T18:05:00.130Z,1018.76
2016-09-27T18:09:56.610Z,1018.83
2016-09-27T18:14:53.288Z,1018.82
2016-09-27T18:19:50.146Z,1018.85
2016-09-27T18:24:47.564Z,1018.87
2016-09-27T18:29:43.910Z,1018.91
2016-09-27T18:34:40.563Z,1018.97
2016-09-27T18:39:37.602Z,1018.97
2016-09-27T18:44:34.159Z,1018.89
2016-09-27T18:49:30.868Z,1018.96
2016-09-27T18:54:27.658Z,1018.93
2016-09-27T18:59:24.451Z,1018.96
2016-09-27T19:04:22.309Z,1019.05
2016-09-27T19:09:18.349Z,1019.08
2016-09-27T19:14:14.681Z,1019.21
2016-09-27T19:19:11.300Z,1019.15
2016-09-27T19:24:07.814Z,1019.21
2016-09-27T19:29:05.145Z,1019.11
2016-09-27T19:34:01.902Z,1019.26
2016-09-27T19:38:58.453Z,1019.09
2016-09-27T19:43:55.153Z,1019.15
2016-09-27T19:48:51.691Z,1019.04
2016-09-27T19:53:47.677Z,1019.01
2016-09-27T19:58:44.285Z,1019.05
2016-09-27T20:03:40.922Z,1019.06
2016-09-27T20:08:37.585Z,1019.11
2016-09-27T20:13:34.665Z,1019.22
2016-09-27T20:18:31.104Z,1019.12
2016-09-27T20:23:28.274Z,1019.02
2016-09-27T20:28:25.075Z,1019.02
2016-09-27T20:33:21.376Z,1019.08
2016-09-27T20:38:17.810Z,1019.13
2016-09-27T20:43:14.271Z,1019.00
2016-09-27T20:48:11.051Z,1018.94
2016-09-27T20:53:07.954Z,1018.90
2016-09-27T20:58:04.845Z,1018.87
2016-09-27T21:03:02.860Z,1018.81
2016-09-27T21:07:59.140Z,1018.78
2016-09-27T21:12:55.498Z,1018.73
2016-09-27T21:17:51.709Z,1018.76
2016-09-27T21:22:48.840Z,1018.66
2016-09-27T21:27:44.982Z,1018.75
2016-09-27T21:32:41.875Z,1018.76
2016-09-27T21:37:40.412Z,1018.77
2016-09-27T21:42:38.249Z,1018.78
2016-09-27T21:47:34.268Z,1018.73
2016-09-27T21:52:31.133Z,1018.58
2016-09-27T21:57:27.466Z,1018.73
2016-09-27T22:02:24.485Z,1018.52
2016-09-27T22:07:20.840Z,1018.66
2016-09-27T22:12:17.256Z,1018.47
2016-09-27T22:17:14.323Z,1018.49
2016-09-27T22:22:12.046Z,1018.51
2016-09-27T22:27:08.729Z,1018.42
2016-09-27T22:32:05.086Z,1018.40
2016-09-27T22:37:01.639Z,1018.40
2016-09-27T22:41:58.513Z,1018.37
2016-09-27T22:46:54.984Z,1018.39
2016-09-27T22:51:53.035Z,1018.47
2016-09-27T22:56:49.447Z,1018.43
2016-09-27T23:01:46.383Z,1018.38
2016-09-27T23:06:43.237Z,1018.25
2016-09-27T23:11:40.009Z,1018.37
2016-09-27T23:16:36.962Z,1018.31
2016-09-27T23:21:33.714Z,1018.41
2016-09-27T23:26:30.414Z,1018.23
2016-09-27T23:31:26.845Z,1018.25
2016-09-27T23:36:24.087Z,1018.14
2016-09-27T23:41:20.453Z,1018.27
2016-09-27T23:46:18.369Z,1018.15
2016-09-27T23:51:14.382Z,1018.22
2016-09-27T23:56:11.419Z,1018.22
